Time;durP1;ratioP1;P1;durP2;ratioP2;P2;SDS_P1;SDS_P2;PMS_P1;PMS_P2;Temp;Humidity;BMP_temperature;BMP_pressure;BME280_temperature;BME280_humidity;BME280_pressure;Samples;Min_cycle;Max_cycle;Signal;HPM_P1;HPM_P2
2022/01/25 00:28:43;;;;;;;68.50;27.63;;;4.90;99.90;;;;;;5028193;28;20062;-70
2022/01/25 00:31:18;;;;;;;73.38;29.80;;;4.90;99.90;;;;;;5027949;28;20030;-71
2022/01/25 00:33:47;;;;;;;63.17;28.38;;;4.90;99.90;;;;;;5039516;28;20057;-71
2022/01/25 00:36:16;;;;;;;75.55;29.38;;;4.90;99.90;;;;;;5029640;28;20116;-70
2022/01/25 00:38:43;;;;;;;76.00;31.33;;;4.90;99.90;;;;;;5022053;28;20023;-70
2022/01/25 00:41:09;;;;;;;63.67;28.20;;;4.90;99.90;;;;;;5029523;28;20014;-71
2022/01/25 00:43:35;;;;;;;74.38;29.40;;;4.90;99.90;;;;;;5034298;28;20398;-70
2022/01/25 00:46:05;;;;;;;70.50;29.27;;;4.90;99.90;;;;;;5029498;28;20105;-72
2022/01/25 00:51:18;;;;;;;76.68;30.02;;;4.90;99.90;;;;;;5028502;28;20131;-70
2022/01/25 00:53:55;;;;;;;78.90;31.27;;;4.80;99.90;;;;;;5030745;28;20747;-71
2022/01/25 00:56:32;;;;;;;70.47;30.20;;;4.80;99.90;;;;;;5028449;28;20037;-70
2022/01/25 00:59:05;;;;;;;73.32;31.08;;;4.80;99.90;;;;;;5027937;28;20030;-72
2022/01/25 01:01:31;;;;;;;79.18;30.55;;;4.90;99.90;;;;;;5025873;28;20041;-71
2022/01/25 01:03:57;;;;;;;80.97;32.88;;;4.90;99.90;;;;;;5027613;28;20041;-71
2022/01/25 01:06:24;;;;;;;78.28;31.77;;;4.90;99.90;;;;;;5026601;28;20018;-70
2022/01/25 01:08:50;;;;;;;75.28;33.33;;;4.90;99.90;;;;;;5034112;28;20103;-70
2022/01/25 01:11:26;;;;;;;85.35;34.03;;;4.90;99.90;;;;;;5019383;28;20031;-71
2022/01/25 01:16:51;;;;;;;75.45;30.73;;;4.80;99.90;;;;;;5029528;28;20025;-71
2022/01/25 01:35:47;;;;;;;83.70;34.25;;;4.90;99.90;;;;;;5033417;28;20029;-71
2022/01/25 01:40:59;;;;;;;88.00;33.35;;;4.90;99.90;;;;;;5028442;28;20104;-70
2022/01/25 01:43:33;;;;;;;94.75;35.83;;;4.90;99.90;;;;;;5037627;28;20408;-70
2022/01/25 01:46:26;;;;;;;92.65;35.85;;;4.80;99.90;;;;;;5031492;28;20025;-70
2022/01/25 01:48:56;;;;;;;95.72;36.25;;;4.80;99.90;;;;;;5018466;28;20033;-69
2022/01/25 01:51:29;;;;;;;93.10;34.45;;;4.80;99.90;;;;;;5025408;28;20033;-69
2022/01/25 01:54:03;;;;;;;89.80;34.95;;;4.80;99.90;;;;;;5031168;28;20026;-70
2022/01/25 01:56:29;;;;;;;81.60;32.90;;;4.80;99.90;;;;;;5021524;28;20034;-69
2022/01/25 01:58:58;;;;;;;91.90;35.15;;;4.80;99.90;;;;;;5002115;28;20506;-70
2022/01/25 02:01:26;;;;;;;96.35;35.40;;;4.80;99.90;;;;;;5028536;28;20084;-70
2022/01/25 02:03:53;;;;;;;100.47;36.80;;;4.80;99.90;;;;;;5034008;28;20092;-69
2022/01/25 02:06:20;;;;;;;88.80;35.78;;;4.80;99.90;;;;;;5030061;28;20036;-70
2022/01/25 02:08:45;;;;;;;85.63;34.15;;;4.80;99.90;;;;;;5033941;28;20033;-71
2022/01/25 02:11:11;;;;;;;85.32;34.67;;;4.80;99.90;;;;;;5032869;28;20393;-69
2022/01/25 02:13:40;;;;;;;92.20;35.50;;;4.80;99.90;;;;;;5018242;28;20394;-69
2022/01/25 02:16:09;;;;;;;96.68;37.05;;;4.80;99.90;;;;;;5019755;28;20022;-69
2022/01/25 02:24:03;;;;;;;97.63;37.58;;;4.90;99.90;;;;;;5027026;28;20160;-70
2022/01/25 02:26:29;;;;;;;92.10;35.75;;;4.90;99.90;;;;;;5031256;28;20108;-69
2022/01/25 02:28:55;;;;;;;94.00;37.38;;;4.80;99.90;;;;;;5022196;28;20022;-69
2022/01/25 02:31:21;;;;;;;99.95;37.85;;;4.80;99.90;;;;;;5026598;28;20034;-70
2022/01/25 02:33:47;;;;;;;94.40;36.10;;;4.80;99.90;;;;;;5026361;28;20040;-70
2022/01/25 02:36:26;;;;;;;101.55;38.42;;;4.80;99.90;;;;;;5028800;28;20495;-69
2022/01/25 02:38:52;;;;;;;90.68;33.45;;;4.80;99.90;;;;;;5029978;28;20018;-70
2022/01/25 02:41:18;;;;;;;92.45;36.60;;;4.80;99.90;;;;;;5029635;28;20029;-70
2022/01/25 02:43:46;;;;;;;95.90;35.72;;;4.80;99.90;;;;;;5027083;28;20028;-72
2022/01/25 02:48:49;;;;;;;96.13;34.30;;;4.80;99.90;;;;;;5021196;28;20101;-69
2022/01/25 02:51:15;;;;;;;92.38;36.88;;;4.80;99.90;;;;;;5022935;28;20029;-69
2022/01/25 02:53:40;;;;;;;91.75;34.95;;;4.80;99.90;;;;;;5047512;22;20045;-71
2022/01/25 02:56:06;;;;;;;96.38;37.78;;;4.80;99.90;;;;;;5026118;28;20052;-71
2022/01/25 02:58:31;;;;;;;105.85;40.60;;;4.80;99.90;;;;;;5018691;28;20026;-70
2022/01/25 03:00:57;;;;;;;90.32;35.03;;;4.70;99.90;;;;;;5023525;28;20501;-70
2022/01/25 03:03:23;;;;;;;95.55;36.58;;;4.70;99.90;;;;;;5019973;28;20021;-70
2022/01/25 03:05:48;;;;;;;100.13;37.15;;;4.70;99.90;;;;;;5018165;28;20097;-70
2022/01/25 03:08:15;;;;;;;85.35;35.58;;;4.80;99.90;;;;;;4996758;28;20064;-71
2022/01/25 03:10:44;;;;;;;88.25;34.10;;;4.80;99.90;;;;;;5006517;28;20038;-71
2022/01/25 03:13:16;;;;;;;96.47;37.22;;;4.80;99.90;;;;;;5005809;28;20054;-70
2022/01/25 03:21:18;;;;;;;91.25;35.83;;;4.80;99.90;;;;;;5010738;28;20102;-70
2022/01/25 03:23:44;;;;;;;98.35;36.22;;;4.90;99.90;;;;;;5011973;28;20021;-71
2022/01/25 03:26:10;;;;;;;92.88;35.25;;;4.90;99.90;;;;;;5013942;28;20030;-71
2022/01/25 03:28:36;;;;;;;85.70;35.03;;;4.90;99.90;;;;;;5014325;28;20475;-70
2022/01/25 03:31:02;;;;;;;95.28;37.42;;;4.90;99.90;;;;;;5015422;28;20034;-70
2022/01/25 03:33:28;;;;;;;101.22;38.65;;;4.80;99.90;;;;;;5016672;28;20403;-71
2022/01/25 03:35:54;;;;;;;92.25;35.55;;;4.80;99.90;;;;;;5010302;28;20109;-71
2022/01/25 03:38:19;;;;;;;100.30;36.78;;;4.80;99.90;;;;;;5014155;28;20033;-71
2022/01/25 03:40:46;;;;;;;96.50;37.03;;;4.70;99.90;;;;;;5007769;28;20036;-73
2022/01/25 03:43:14;;;;;;;94.55;35.03;;;4.70;99.90;;;;;;5006027;28;20110;-72
2022/01/25 03:45:44;;;;;;;92.95;36.42;;;4.70;99.90;;;;;;5008120;28;20036;-70
2022/01/25 03:50:35;;;;;;;101.57;36.42;;;4.70;99.90;;;;;;5025701;28;20406;-70
2022/01/25 03:53:01;;;;;;;93.63;36.75;;;4.70;99.90;;;;;;5018566;28;20042;-70
2022/01/25 03:55:26;;;;;;;94.32;37.25;;;4.70;99.90;;;;;;5012143;28;20407;-70
2022/01/25 03:57:52;;;;;;;93.80;36.83;;;4.70;99.90;;;;;;5012868;28;20034;-71
2022/01/25 04:00:18;;;;;;;96.82;35.05;;;4.70;99.90;;;;;;5010718;28;20025;-72
2022/01/25 04:02:53;;;;;;;99.40;36.53;;;4.70;99.90;;;;;;5007999;28;20057;-71
2022/01/25 04:05:33;;;;;;;98.70;38.13;;;4.70;99.90;;;;;;5008590;28;20026;-71
2022/01/25 04:07:59;;;;;;;88.00;33.67;;;4.80;99.90;;;;;;5011006;28;20037;-71
2022/01/25 04:10:25;;;;;;;99.47;38.65;;;4.70;99.90;;;;;;5007838;28;20112;-71
2022/01/25 04:12:51;;;;;;;101.07;38.08;;;4.80;99.90;;;;;;5008654;28;20399;-69
2022/01/25 04:15:17;;;;;;;97.28;37.15;;;4.80;99.90;;;;;;5012277;28;20393;-70
2022/01/25 04:17:48;;;;;;;99.60;38.38;;;4.70;99.90;;;;;;4995981;28;20089;-71
2022/01/25 04:20:19;;;;;;;97.55;34.53;;;4.80;99.90;;;;;;5005100;28;20026;-72
2022/01/25 04:25:29;;;;;;;92.88;37.13;;;4.70;99.90;;;;;;5013393;28;20054;-72
2022/01/25 04:27:55;;;;;;;90.40;36.95;;;4.80;99.90;;;;;;5010131;28;20029;-70
2022/01/25 04:30:21;;;;;;;96.45;36.85;;;4.80;99.90;;;;;;5009790;28;20057;-70
2022/01/25 04:32:51;;;;;;;99.35;36.33;;;4.80;99.90;;;;;;5007114;28;20085;-72
2022/01/25 04:51:49;;;;;;;104.82;37.60;;;4.70;99.90;;;;;;5003128;28;20019;-73
2022/01/25 04:57:16;;;;;;;108.07;40.03;;;4.70;99.90;;;;;;5011185;28;20022;-71
2022/01/25 04:59:46;;;;;;;102.72;37.60;;;4.60;99.90;;;;;;5012818;28;20030;-72
2022/01/25 05:02:35;;;;;;;95.57;38.33;;;4.60;99.90;;;;;;5009683;28;20029;-72
2022/01/25 05:05:09;;;;;;;84.65;35.15;;;4.60;99.90;;;;;;5011599;28;20036;-70
2022/01/25 05:07:44;;;;;;;94.45;35.40;;;4.70;99.90;;;;;;5007197;28;20120;-70
2022/01/25 05:10:10;;;;;;;102.03;37.58;;;4.70;99.90;;;;;;5003394;28;20026;-72
2022/01/25 05:15:21;;;;;;;95.13;37.50;;;4.70;99.90;;;;;;5003742;28;20037;-72
2022/01/25 05:17:59;;;;;;;;;;;4.70;99.90;;;;;;5004150;28;20040;-72
2022/01/25 05:23:09;;;;;;;97.65;36.67;;;4.70;99.90;;;;;;5004823;28;20097;-71
2022/01/25 05:25:34;;;;;;;107.93;40.75;;;4.70;99.90;;;;;;5006842;28;20535;-71
2022/01/25 05:28:00;;;;;;;111.38;40.97;;;4.70;99.90;;;;;;5002325;28;20273;-72
2022/01/25 05:30:26;;;;;;;98.95;37.58;;;4.60;99.90;;;;;;5004380;28;20061;-70
2022/01/25 05:32:51;;;;;;;101.30;38.60;;;4.60;99.90;;;;;;5004506;28;20069;-71
2022/01/25 05:35:17;;;;;;;112.43;39.72;;;4.70;99.90;;;;;;5000786;28;20034;-71
2022/01/25 05:37:43;;;;;;;108.30;41.50;;;4.60;99.90;;;;;;5004556;28;20025;-70
2022/01/25 05:40:15;;;;;;;93.30;36.85;;;4.60;99.90;;;;;;5002401;28;20108;-70
2022/01/25 05:45:18;;;;;;;101.15;37.88;;;4.70;99.90;;;;;;5005829;28;20058;-71
2022/01/25 05:47:44;;;;;;;97.22;37.80;;;4.70;99.90;;;;;;5007742;28;20104;-71
2022/01/25 05:50:13;;;;;;;89.20;34.85;;;4.70;99.90;;;;;;5017318;28;20026;-72
2022/01/25 05:52:39;;;;;;;96.40;38.30;;;4.70;99.90;;;;;;5006486;28;20091;-72
2022/01/25 05:55:06;;;;;;;100.90;39.28;;;4.70;99.90;;;;;;5006240;28;20462;-71
2022/01/25 05:57:31;;;;;;;98.93;39.30;;;4.80;99.90;;;;;;5005328;28;20026;-73
2022/01/25 05:59:57;;;;;;;97.72;38.60;;;4.80;99.90;;;;;;4990500;28;20112;-70
2022/01/25 06:02:27;;;;;;;103.55;37.78;;;4.80;99.90;;;;;;5009609;28;20029;-71
2022/01/25 06:04:53;;;;;;;98.03;39.72;;;4.80;99.90;;;;;;5014283;28;20022;-71
2022/01/25 06:07:19;;;;;;;105.60;39.50;;;4.80;99.90;;;;;;5007265;28;20044;-72
2022/01/25 06:09:44;;;;;;;101.72;38.03;;;4.80;99.90;;;;;;5015358;28;20034;-72
2022/01/25 06:12:11;;;;;;;95.28;37.13;;;4.80;99.90;;;;;;5007791;28;20376;-72
2022/01/25 06:14:38;;;;;;;101.68;38.55;;;4.80;99.90;;;;;;5010760;28;20026;-72
2022/01/25 06:17:04;;;;;;;95.50;38.75;;;4.80;99.90;;;;;;5008771;28;20033;-71
2022/01/25 06:19:30;;;;;;;100.53;39.40;;;4.80;99.90;;;;;;4993661;28;20030;-72
2022/01/25 06:21:57;;;;;;;105.18;41.15;;;4.70;99.90;;;;;;5005816;28;20033;-73
2022/01/25 06:24:22;;;;;;;96.35;37.15;;;4.80;99.90;;;;;;5004435;28;20052;-71
2022/01/25 06:26:48;;;;;;;90.28;37.58;;;4.70;99.90;;;;;;5008391;28;20054;-72
2022/01/25 06:29:17;;;;;;;99.20;37.28;;;4.70;99.90;;;;;;5009207;28;20109;-72
2022/01/25 06:31:43;;;;;;;105.63;40.22;;;4.70;99.90;;;;;;5006499;28;20026;-72
2022/01/25 06:34:09;;;;;;;106.68;39.40;;;4.70;99.90;;;;;;5006054;28;20041;-72
2022/01/25 06:36:34;;;;;;;99.10;38.00;;;4.70;99.90;;;;;;5005904;28;20038;-72
2022/01/25 06:39:00;;;;;;;99.20;36.92;;;4.70;99.90;;;;;;5007801;28;20896;-72
2022/01/25 06:41:27;;;;;;;107.00;40.97;;;4.70;99.90;;;;;;5006694;28;20129;-72
2022/01/25 06:43:53;;;;;;;104.95;39.50;;;4.70;99.90;;;;;;5003368;28;20034;-72
2022/01/25 06:46:19;;;;;;;108.20;40.15;;;4.60;99.90;;;;;;5005293;28;20048;-72
2022/01/25 06:48:44;;;;;;;102.30;38.22;;;4.60;99.90;;;;;;4973815;28;20373;-72
2022/01/25 06:51:10;;;;;;;108.75;38.58;;;4.60;99.90;;;;;;5007092;28;20030;-73
2022/01/25 06:53:36;;;;;;;100.45;37.85;;;4.70;99.90;;;;;;5007475;28;20113;-72
2022/01/25 06:56:04;;;;;;;103.13;39.08;;;4.60;99.90;;;;;;5007635;28;20395;-72
2022/01/25 06:58:30;;;;;;;100.55;35.95;;;4.70;99.90;;;;;;5006093;28;20030;-72
2022/01/25 07:00:55;;;;;;;85.00;32.92;;;4.70;99.90;;;;;;4991487;28;20139;-72
2022/01/25 07:03:21;;;;;;;93.55;35.53;;;4.70;99.90;;;;;;5008150;28;20077;-72
2022/01/25 07:05:47;;;;;;;98.75;38.13;;;4.80;99.90;;;;;;5004096;28;20550;-72
2022/01/25 07:08:12;;;;;;;94.45;36.53;;;4.80;99.90;;;;;;5003008;28;20475;-72
2022/01/25 07:10:38;;;;;;;96.50;36.13;;;4.80;99.90;;;;;;5009768;28;20388;-72
2022/01/25 07:13:04;;;;;;;99.00;38.25;;;4.70;99.90;;;;;;5007534;28;20030;-72
2022/01/25 07:15:30;;;;;;;105.93;38.60;;;4.70;99.90;;;;;;5006067;28;20033;-72
2022/01/25 07:17:55;;;;;;;98.70;37.13;;;4.70;99.90;;;;;;5006646;28;20029;-72
2022/01/25 07:20:21;;;;;;;103.75;38.45;;;4.70;99.90;;;;;;5001871;28;20577;-72
2022/01/25 07:22:47;;;;;;;88.15;33.40;;;4.70;99.90;;;;;;5002998;28;20373;-72
2022/01/25 07:25:13;;;;;;;105.22;37.60;;;4.80;99.90;;;;;;5004551;28;20364;-72
2022/01/25 07:27:39;;;;;;;100.15;37.20;;;4.70;99.90;;;;;;5006444;28;20021;-76
2022/01/25 07:30:06;;;;;;;104.70;38.38;;;4.80;99.90;;;;;;5007942;28;20030;-73
2022/01/25 07:32:32;;;;;;;99.82;37.97;;;4.70;99.90;;;;;;5002749;28;20026;-72
2022/01/25 07:34:58;;;;;;;100.03;38.75;;;4.60;99.90;;;;;;5006601;28;20056;-72
2022/01/25 07:37:23;;;;;;;95.90;37.33;;;4.70;99.90;;;;;;5009746;28;21813;-72
2022/01/25 07:39:49;;;;;;;102.38;38.28;;;4.70;99.90;;;;;;5009681;28;20030;-72
2022/01/25 07:42:17;;;;;;;101.03;37.28;;;4.60;99.90;;;;;;5004339;28;20096;-72
2022/01/25 07:44:44;;;;;;;108.75;39.58;;;4.70;99.90;;;;;;5005388;28;20471;-71
2022/01/25 07:47:10;;;;;;;96.65;37.58;;;4.70;99.90;;;;;;4984978;28;20031;-71
2022/01/25 07:49:36;;;;;;;98.47;37.17;;;4.60;99.90;;;;;;5010147;28;20351;-72
2022/01/25 07:52:03;;;;;;;101.10;36.83;;;4.70;99.90;;;;;;4992230;28;20029;-71
2022/01/25 07:54:29;;;;;;;105.95;37.20;;;4.70;99.90;;;;;;5009400;28;20041;-72
2022/01/25 07:56:55;;;;;;;89.43;34.55;;;4.80;99.90;;;;;;5009189;28;20033;-71
2022/01/25 07:59:21;;;;;;;99.47;37.60;;;4.80;99.90;;;;;;4992109;28;20721;-72
2022/01/25 08:01:48;;;;;;;90.40;35.65;;;4.80;99.90;;;;;;4991710;28;20077;-72
2022/01/25 08:04:14;;;;;;;106.15;37.42;;;4.80;99.90;;;;;;5010620;28;20096;-72
2022/01/25 08:06:40;;;;;;;90.75;35.80;;;4.80;99.90;;;;;;5013895;28;20018;-71
2022/01/25 08:09:08;;;;;;;85.35;35.53;;;4.80;99.90;;;;;;5023851;28;20037;-72
2022/01/25 08:11:35;;;;;;;96.45;35.30;;;4.90;99.90;;;;;;5020294;28;20030;-72
2022/01/25 08:14:12;;;;;;;94.13;35.40;;;4.90;99.90;;;;;;5016802;28;20034;-72
2022/01/25 08:16:45;;;;;;;94.45;34.88;;;4.90;99.90;;;;;;4995388;28;20109;-71
2022/01/25 08:19:11;;;;;;;93.30;35.35;;;4.80;99.90;;;;;;5012724;28;20018;-71
2022/01/25 08:21:37;;;;;;;97.07;35.97;;;4.80;99.90;;;;;;5013256;28;20018;-72
2022/01/25 08:24:04;;;;;;;101.43;38.20;;;4.80;99.90;;;;;;5012922;28;20030;-72
2022/01/25 08:26:30;;;;;;;94.90;35.97;;;4.80;99.90;;;;;;5012596;28;20053;-71
2022/01/25 08:28:55;;;;;;;98.65;34.83;;;4.80;99.90;;;;;;5013940;28;20034;-71
2022/01/25 08:31:21;;;;;;;95.20;37.03;;;4.80;99.90;;;;;;5013162;28;20026;-73
2022/01/25 08:33:47;;;;;;;94.85;36.78;;;4.80;99.90;;;;;;4992952;28;20022;-72
2022/01/25 08:36:13;;;;;;;91.10;34.67;;;4.80;99.90;;;;;;5010421;28;20483;-72
2022/01/25 08:38:39;;;;;;;95.13;35.22;;;4.90;99.90;;;;;;5009261;28;20049;-72
2022/01/25 08:41:06;;;;;;;97.70;37.88;;;4.90;99.90;;;;;;4996432;28;20108;-72
2022/01/25 08:43:33;;;;;;;84.32;33.55;;;4.90;99.90;;;;;;5016031;28;20391;-72
2022/01/25 08:46:00;;;;;;;92.15;36.38;;;4.90;99.90;;;;;;4995345;28;20030;-72
2022/01/25 08:48:26;;;;;;;87.63;33.75;;;4.90;99.90;;;;;;5011261;28;20087;-72
2022/01/25 08:50:52;;;;;;;93.95;34.55;;;4.90;99.90;;;;;;4995470;28;20030;-72
2022/01/25 08:53:18;;;;;;;89.65;33.70;;;4.90;99.90;;;;;;5011539;28;20045;-72
2022/01/25 08:55:44;;;;;;;85.10;33.05;;;4.90;99.90;;;;;;5003270;28;20030;-73
2022/01/25 08:58:10;;;;;;;83.18;32.30;;;4.90;99.90;;;;;;5014388;28;20026;-72
2022/01/25 09:00:36;;;;;;;96.03;33.90;;;5.00;99.90;;;;;;5012489;28;20041;-73
2022/01/25 09:03:02;;;;;;;93.13;36.13;;;5.00;99.90;;;;;;5014204;28;20037;-73
2022/01/25 09:05:28;;;;;;;81.15;32.17;;;4.90;99.90;;;;;;5012304;28;20026;-73
2022/01/25 09:07:56;;;;;;;91.40;34.35;;;4.90;99.90;;;;;;5008708;28;20033;-73
2022/01/25 09:10:22;;;;;;;96.00;36.17;;;4.90;99.90;;;;;;5012251;28;20041;-73
2022/01/25 09:12:48;;;;;;;96.88;37.38;;;4.90;99.90;;;;;;5010124;28;20028;-72
2022/01/25 09:15:14;;;;;;;104.90;36.40;;;4.90;99.90;;;;;;5010625;28;20097;-73
2022/01/25 09:17:40;;;;;;;104.28;37.92;;;4.90;99.90;;;;;;5010326;28;20088;-73
2022/01/25 09:20:06;;;;;;;85.25;32.80;;;4.80;99.90;;;;;;5007963;28;20670;-73
2022/01/25 09:22:32;;;;;;;91.45;34.20;;;4.80;99.90;;;;;;5006605;28;20088;-73
2022/01/25 09:24:58;;;;;;;84.78;31.88;;;4.90;99.90;;;;;;5007708;28;20047;-73
2022/01/25 09:27:24;;;;;;;85.30;32.70;;;4.90;99.90;;;;;;5006697;28;20034;-72
2022/01/25 09:29:49;;;;;;;95.50;36.47;;;4.90;99.90;;;;;;4995003;28;20037;-73
2022/01/25 09:32:18;;;;;;;91.72;33.53;;;4.90;99.90;;;;;;5008212;28;20080;-71
2022/01/25 09:34:45;;;;;;;91.95;35.85;;;4.90;99.90;;;;;;5014440;28;20502;-71
2022/01/25 09:37:10;;;;;;;92.68;35.40;;;4.90;99.90;;;;;;5010701;28;20465;-71
2022/01/25 09:39:36;;;;;;;80.63;32.97;;;4.90;99.90;;;;;;5010539;28;20054;-71
2022/01/25 09:42:04;;;;;;;86.50;32.70;;;4.90;99.90;;;;;;4993285;28;20092;-71
2022/01/25 09:44:29;;;;;;;88.28;33.60;;;4.90;99.90;;;;;;5008551;28;20056;-72
2022/01/25 09:46:56;;;;;;;82.57;31.70;;;4.90;99.90;;;;;;5005854;28;20396;-72
2022/01/25 09:49:22;;;;;;;81.68;31.33;;;5.00;99.90;;;;;;5006542;28;20068;-72
2022/01/25 09:51:49;;;;;;;92.10;34.83;;;5.00;99.90;;;;;;5007362;28;20030;-72
2022/01/25 09:54:15;;;;;;;82.10;31.92;;;5.00;99.90;;;;;;5000444;28;20129;-71
2022/01/25 09:56:41;;;;;;;84.07;31.15;;;5.00;99.90;;;;;;5006127;28;20117;-72
2022/01/25 09:59:07;;;;;;;91.28;32.53;;;5.00;99.90;;;;;;5002801;28;20128;-72
2022/01/25 10:01:33;;;;;;;88.40;34.75;;;5.00;99.90;;;;;;4988395;28;20025;-72
2022/01/25 10:04:00;;;;;;;90.03;32.13;;;5.00;99.90;;;;;;5005370;28;20037;-72
2022/01/25 10:06:32;;;;;;;75.20;29.10;;;5.00;99.90;;;;;;4987389;28;20415;-73
2022/01/25 10:08:58;;;;;;;83.63;34.08;;;5.10;99.90;;;;;;5004284;28;20451;-72
2022/01/25 10:11:25;;;;;;;87.40;32.67;;;5.10;99.90;;;;;;5003645;28;20061;-72
2022/01/25 10:13:57;;;;;;;93.78;32.08;;;5.10;99.90;;;;;;5005678;28;20033;-72
2022/01/25 10:16:32;;;;;;;87.97;33.65;;;5.10;99.90;;;;;;5003508;28;20040;-72
2022/01/25 10:19:04;;;;;;;81.78;31.63;;;5.10;99.90;;;;;;5005812;28;20143;-72
2022/01/25 10:21:37;;;;;;;74.18;30.33;;;5.10;99.90;;;;;;5001660;28;20029;-72
2022/01/25 10:24:18;;;;;;;84.20;31.90;;;5.20;99.90;;;;;;5007073;28;20026;-71
2022/01/25 10:26:55;;;;;;;84.63;32.75;;;5.20;99.90;;;;;;5009360;28;20036;-72
2022/01/25 10:29:29;;;;;;;81.65;32.30;;;5.20;99.90;;;;;;5009789;28;20080;-70
2022/01/25 10:32:02;;;;;;;80.32;32.42;;;5.30;99.90;;;;;;5013054;28;20502;-72
2022/01/25 10:34:40;;;;;;;74.53;30.73;;;5.30;99.90;;;;;;5006924;28;20080;-72
2022/01/25 10:37:10;;;;;;;86.25;32.88;;;5.30;99.90;;;;;;5010857;28;20472;-72
2022/01/25 10:39:40;;;;;;;75.03;28.75;;;5.30;99.90;;;;;;4992035;28;20025;-72
2022/01/25 10:42:11;;;;;;;74.03;30.88;;;5.40;99.90;;;;;;4994159;28;20034;-72
2022/01/25 10:44:58;;;;;;;76.68;31.77;;;5.40;99.90;;;;;;5004963;28;20038;-71
2022/01/25 10:47:44;;;;;;;81.60;31.92;;;5.40;99.90;;;;;;5004836;28;20046;-72
2022/01/25 10:50:34;;;;;;;76.05;30.67;;;5.50;99.90;;;;;;5011968;28;20034;-72
2022/01/25 10:53:10;;;;;;;63.67;27.98;;;5.50;99.90;;;;;;4972454;28;20046;-74
2022/01/25 10:55:46;;;;;;;79.85;30.60;;;5.50;99.90;;;;;;5004341;28;20056;-71
2022/01/25 10:58:13;;;;;;;70.57;27.73;;;5.50;99.90;;;;;;5003868;28;20031;-72
2022/01/25 11:00:45;;;;;;;79.25;29.65;;;5.50;99.90;;;;;;5004970;28;20821;-71
2022/01/25 11:03:23;;;;;;;72.03;30.98;;;5.50;99.90;;;;;;5005851;28;20026;-72
2022/01/25 11:05:49;;;;;;;67.28;28.40;;;5.50;99.90;;;;;;5002793;28;20479;-72
2022/01/25 11:08:18;;;;;;;66.55;27.50;;;5.60;99.90;;;;;;5005778;28;20095;-71
2022/01/25 11:11:00;;;;;;;72.13;30.45;;;5.50;99.90;;;;;;5007617;28;20120;-71
2022/01/25 11:15:59;;;;;;;65.90;28.52;;;5.50;99.90;;;;;;4998831;28;20848;-73
2022/01/25 11:18:25;;;;;;;70.57;27.95;;;5.60;99.90;;;;;;5003281;28;20527;-73
2022/01/25 11:20:54;;;;;;;67.43;27.23;;;5.60;99.90;;;;;;5002946;28;20077;-74
2022/01/25 11:23:20;;;;;;;68.75;28.48;;;5.60;99.90;;;;;;5004707;28;20105;-73
2022/01/25 11:25:48;;;;;;;73.45;28.38;;;5.60;99.90;;;;;;5007039;28;20500;-75
2022/01/25 11:28:15;;;;;;;74.50;30.55;;;5.60;99.90;;;;;;4997385;28;20104;-77
2022/01/25 11:30:42;;;;;;;68.30;27.83;;;5.60;99.90;;;;;;5008017;28;20116;-78
2022/01/25 11:33:10;;;;;;;68.05;28.20;;;5.50;99.90;;;;;;5003667;28;20048;-77
2022/01/25 11:35:38;;;;;;;78.07;32.40;;;5.50;99.90;;;;;;5006795;28;20080;-76
2022/01/25 11:38:06;;;;;;;73.65;28.70;;;5.50;99.90;;;;;;5008828;28;20035;-76
2022/01/25 11:40:35;;;;;;;67.40;27.63;;;5.60;99.90;;;;;;4994617;28;20048;-75
2022/01/25 11:43:05;;;;;;;67.97;27.60;;;5.60;99.90;;;;;;5011396;28;20056;-75
2022/01/25 11:45:35;;;;;;;72.63;29.35;;;5.70;99.90;;;;;;5014563;28;20034;-75
2022/01/25 11:48:02;;;;;;;67.95;29.27;;;5.60;99.90;;;;;;5007668;28;20034;-75
2022/01/25 11:50:35;;;;;;;75.00;29.98;;;5.60;99.90;;;;;;4989353;28;20041;-75
2022/01/25 11:53:06;;;;;;;76.28;31.45;;;5.70;99.90;;;;;;5013844;28;20407;-75
2022/01/25 11:55:36;;;;;;;79.38;28.83;;;5.60;99.90;;;;;;5006767;28;20789;-76
2022/01/25 11:58:06;;;;;;;64.30;27.70;;;5.60;99.90;;;;;;4992427;28;20034;-75
2022/01/25 12:00:52;;;;;;;63.60;26.92;;;5.70;99.90;;;;;;4990876;28;20692;-76
2022/01/25 12:03:20;;;;;;;63.65;26.65;;;5.70;99.90;;;;;;4992538;28;20034;-76
2022/01/25 12:05:54;;;;;;;67.20;28.38;;;5.70;99.90;;;;;;4989817;28;20061;-76
2022/01/25 12:08:28;;;;;;;64.57;26.08;;;5.70;99.90;;;;;;5007859;28;20117;-75
2022/01/25 12:11:05;;;;;;;74.65;26.30;;;5.70;99.90;;;;;;4992429;28;20052;-76
2022/01/25 12:13:32;;;;;;;58.05;23.15;;;5.70;99.90;;;;;;5009352;28;20509;-76
2022/01/25 12:16:26;;;;;;;67.93;26.50;;;5.70;99.90;;;;;;5010202;28;20025;-76
2022/01/25 12:19:04;;;;;;;59.80;25.40;;;5.80;99.90;;;;;;5010229;28;20029;-76
2022/01/25 12:21:44;;;;;;;65.40;26.00;;;5.80;99.90;;;;;;4990545;28;20026;-75
2022/01/25 12:24:40;;;;;;;60.10;24.67;;;5.80;99.90;;;;;;5010666;28;20044;-76
2022/01/25 12:27:26;;;;;;;60.97;24.45;;;5.90;99.90;;;;;;5013223;28;20487;-76
2022/01/25 12:30:39;;;;;;;66.75;25.60;;;5.80;99.90;;;;;;4993986;28;20644;-76
2022/01/25 12:33:08;;;;;;;58.58;24.40;;;5.80;99.90;;;;;;5008882;28;20053;-76
2022/01/25 12:35:44;;;;;;;58.50;23.85;;;5.80;99.90;;;;;;5012917;28;20041;-76
2022/01/25 12:38:16;;;;;;;58.90;24.05;;;5.90;99.90;;;;;;5010267;28;20021;-77
2022/01/25 12:40:52;;;;;;;55.03;23.88;;;5.90;99.90;;;;;;5008682;28;20026;-76
2022/01/25 12:43:38;;;;;;;53.45;23.27;;;5.90;99.90;;;;;;5014272;28;20030;-76
2022/01/25 12:46:21;;;;;;;51.90;22.75;;;5.90;99.90;;;;;;5014841;28;20061;-76
2022/01/25 12:48:53;;;;;;;57.38;24.27;;;5.90;99.90;;;;;;5014359;28;20033;-76
2022/01/25 12:51:28;;;;;;;56.08;23.38;;;6.00;99.90;;;;;;5014778;28;20022;-76
2022/01/25 12:53:56;;;;;;;50.90;23.13;;;6.00;99.90;;;;;;5012935;28;20117;-76
2022/01/25 12:56:25;;;;;;;62.30;24.45;;;6.00;99.90;;;;;;5009198;28;20029;-76
2022/01/25 12:58:55;;;;;;;50.53;21.08;;;6.00;99.90;;;;;;5016739;28;20018;-77
2022/01/25 13:01:24;;;;;;;56.13;24.80;;;6.00;99.90;;;;;;5013212;28;20045;-77
2022/01/25 13:03:55;;;;;;;56.80;24.35;;;6.00;99.90;;;;;;5017401;28;20084;-76
2022/01/25 13:06:43;;;;;;;56.33;23.40;;;6.00;99.90;;;;;;5013843;28;20097;-76
2022/01/25 13:09:37;;;;;;;47.90;21.42;;;6.00;99.90;;;;;;5014040;28;20025;-76
2022/01/25 13:17:07;;;;;;;48.53;19.95;;;6.00;99.90;;;;;;5017679;28;20017;-75
2022/01/25 13:19:37;;;;;;;53.25;22.20;;;6.00;99.90;;;;;;4995403;28;20376;-76
2022/01/25 13:22:09;;;;;;;48.23;20.13;;;6.00;99.90;;;;;;5019945;28;20108;-78
2022/01/25 13:24:44;;;;;;;47.88;20.05;;;6.00;99.90;;;;;;5012443;28;20022;-76
2022/01/25 13:27:13;;;;;;;42.55;19.73;;;6.00;99.90;;;;;;5011931;28;20364;-76
2022/01/25 13:32:38;;;;;;;46.67;18.88;;;6.00;99.90;;;;;;5007068;28;20096;-76
2022/01/25 13:35:24;;;;;;;46.25;19.67;;;6.00;99.90;;;;;;5014400;28;20104;-76
2022/01/25 13:38:09;;;;;;;41.60;18.33;;;6.00;99.90;;;;;;5015860;28;20128;-76
2022/01/25 13:41:17;;;;;;;39.60;18.00;;;6.00;99.90;;;;;;5011488;28;20045;-76
2022/01/25 13:46:29;;;;;;;39.45;16.65;;;6.00;99.90;;;;;;5009356;28;20037;-76
2022/01/25 13:48:58;;;;;;;41.22;17.35;;;6.10;99.90;;;;;;4995911;28;20029;-76
2022/01/25 13:51:27;;;;;;;34.00;15.88;;;6.10;99.90;;;;;;5007732;28;20123;-76
2022/01/25 13:53:58;;;;;;;44.90;17.70;;;6.10;99.90;;;;;;5009725;28;20089;-77
2022/01/25 13:56:28;;;;;;;39.85;17.52;;;6.10;99.90;;;;;;4994651;28;20052;-76
2022/01/25 13:58:54;;;;;;;34.50;15.13;;;6.10;99.90;;;;;;4994481;28;20029;-77
2022/01/25 14:01:23;;;;;;;38.22;16.90;;;6.10;99.90;;;;;;5008414;28;20022;-76
2022/01/25 14:03:54;;;;;;;33.25;15.18;;;6.00;99.90;;;;;;4992140;28;20076;-77
2022/01/25 14:06:26;;;;;;;35.70;15.90;;;6.00;99.90;;;;;;5009853;28;20033;-76
2022/01/25 14:09:01;;;;;;;31.77;14.13;;;6.00;99.90;;;;;;5005487;28;20038;-76
2022/01/25 14:24:52;;;;;;;36.75;15.55;;;6.00;99.90;;;;;;5006031;28;20117;-77
2022/01/25 14:27:30;;;;;;;36.60;16.95;;;5.90;99.90;;;;;;5001530;28;20033;-77
2022/01/25 14:29:58;;;;;;;34.03;14.93;;;5.90;99.90;;;;;;4990262;28;20128;-76
2022/01/25 14:32:35;;;;;;;33.50;15.98;;;6.00;99.90;;;;;;4973859;28;20840;-76
2022/01/25 14:35:09;;;;;;;30.00;13.85;;;5.90;99.90;;;;;;4988900;28;20088;-76
2022/01/25 14:37:40;;;;;;;33.85;14.63;;;5.90;99.90;;;;;;5008369;28;20513;-76
2022/01/25 14:40:07;;;;;;;;;;;5.90;99.90;;;;;;5003889;28;20496;-76
2022/01/25 14:42:33;;;;;;;36.35;14.23;;;5.90;99.90;;;;;;4999628;28;19916;-76
2022/01/25 14:45:07;;;;;;;41.60;16.50;;;5.90;99.90;;;;;;5004681;28;20036;-76
2022/01/25 14:47:38;;;;;;;32.05;14.50;;;5.80;99.90;;;;;;5004084;28;20037;-77
2022/01/25 14:50:15;;;;;;;34.78;13.90;;;5.80;99.90;;;;;;5008241;28;20066;-76
2022/01/25 14:52:40;;;;;;;36.05;14.70;;;5.80;99.90;;;;;;5007765;28;20443;-76